Flight Track Log - Related Links

Times and Time Zones

All times are in EDT time to prevent confusion due to time zone crossing. See the CPZ5841 flight status page for this flight to view local times or setup timezone preferences in your user account.

Time Position Orientation Groundspeed Altitude Reporting Facility
EDT Latitude Longitude Course Direction KTS MPH feet Rate Location/Type
Fri 10:56:39 PM 44.8833 -93.1667 286° West 153 176 2,300  Level Minneapolis TRACON
Fri 10:57:01 PM 44.8761 -93.1464 117° Southeast 162 186 3,000 2,169 Climbing Minneapolis Center
Fri 10:58:02 PM 44.9122 -93.0903 48° Northeast 239 275 5,300 2,705 Climbing Minneapolis Center
Fri 10:59:00 PM 45.0219 -93.6745 291° West  Level FlightAware Approximate
Fri 10:59:03 PM 44.9628 -93.1344 328° Northwest 247 284 8,500  Level Minneapolis Center
Fri 11:00:00 PM 45.0581 -93.7909 295° West  Level FlightAware Approximate
Fri 11:00:05 PM 44.9797 -93.2369 283° West 276 318 10,700  Level Minneapolis Center
Fri 11:01:00 PM 45.0918 -93.9088 286° West  Level FlightAware Approximate
Fri 11:01:06 PM 45.0022 -93.3625 284° West 335 386 12,700  Level Minneapolis Center
Fri 11:02:07 PM 45.0289 -93.5197 284° West 347 399 16,000 2,803 Climbing Minneapolis Center
Fri 11:03:08 PM 45.0506 -93.6503 283° West 346 398 18,400 2,951 Climbing Minneapolis Center
Fri 11:04:09 PM 45.0719 -93.7764 284° West 337 388 22,000 3,000 Climbing Minneapolis Center
Fri 11:05:10 PM 45.0925 -93.8953 284° West 321 369 24,500 1,951 Climbing Minneapolis Center
Fri 11:06:12 PM 45.1225 -94.0136 290° West 318 366 26,000 1,463 Climbing Minneapolis Center
Fri 11:07:13 PM 45.1869 -94.1097 314° West 342 394 27,500 1,388 Climbing Minneapolis Center
Fri 11:08:13 PM 45.2581 -94.2019 318° Northwest 354 407 28,800 1,230 Climbing Minneapolis Center
Fri 11:09:15 PM 45.2942 -94.3375 291° West 366 421 30,000 732 Climbing Minneapolis Center
Fri 11:10:16 PM 45.3317 -94.4800 291° West 382 440 30,300 393 Climbing Minneapolis Center
Fri 11:11:17 PM 45.3811 -94.6667 291° West 417 480 30,800 492 Climbing Minneapolis Center
Fri 11:12:18 PM 45.4239 -94.8281 291° West 434 499 31,300 590 Climbing Minneapolis Center
Fri 11:13:19 PM 45.4658 -94.9914 290° West 441 507 32,000 344 Climbing Minneapolis Center
Fri 11:14:20 PM 45.5092 -95.1664 290° West 435 501 32,000  Level Minneapolis Center
Fri 11:15:21 PM 45.5511 -95.3286 290° West 436 502 32,000  Level Minneapolis Center
Fri 11:16:22 PM 45.5919 -95.4900 290° West 436 502 32,000  Level Minneapolis Center
Fri 11:17:24 PM 45.6325 -95.6522 290° West 436 502 32,000  Level Minneapolis Center
Fri 11:18:25 PM 45.6739 -95.8169 290° West 442 509 32,000  Level Minneapolis Center
Fri 11:19:26 PM 45.7153 -95.9794 290° West 440 506 32,000  Level Minneapolis Center
Fri 11:20:27 PM 45.7544 -96.1422 289° West 436 502 32,000  Level Minneapolis Center
Fri 11:21:28 PM 45.7953 -96.3056 290° West 437 503 32,000  Level Minneapolis Center
Fri 11:22:29 PM 45.8339 -96.4692 289° West 436 502 32,000  Level Minneapolis Center
Fri 11:23:31 PM 45.8731 -96.6328 289° West 436 502 32,000  Level Minneapolis Center
Fri 11:24:32 PM 45.9214 -96.8303 289° West 438 504 32,000  Level Minneapolis Center
Fri 11:25:33 PM 45.9578 -96.9825 289° West 439 505 32,000  Level Minneapolis Center
Fri 11:26:34 PM 45.9978 -97.1517 289° West 443 510 32,000  Level Minneapolis Center
Fri 11:27:35 PM 46.0358 -97.3192 288° West 443 510 32,000  Level Minneapolis Center
Fri 11:28:36 PM 46.0753 -97.4850 289° West 441 507 32,000  Level Minneapolis Center
Fri 11:29:37 PM 46.1144 -97.6481 289° West 438 504 32,000  Level Minneapolis Center
Fri 11:30:38 PM 46.1514 -97.8156 288° West 437 503 32,000  Level Minneapolis Center
Fri 11:31:39 PM 46.1894 -97.9825 288° West 439 505 32,000  Level Minneapolis Center
Fri 11:32:40 PM 46.2258 -98.1444 288° West 432 497 32,000  Level Minneapolis Center
Fri 11:33:41 PM 46.2708 -98.3461 288° West 435 501 32,000  Level Minneapolis Center
Fri 11:34:42 PM 46.3081 -98.5122 288° West 436 502 32,000 -246 Level Minneapolis Center
Fri 11:35:43 PM 46.3447 -98.6769 288° West 434 499 31,500 -1,525 Descending Minneapolis Center
Fri 11:36:44 PM 46.3797 -98.8386 287° West 430 495 28,900 -2,557 Descending Minneapolis Center
Fri 11:37:45 PM 46.4144 -98.9986 288° West 422 486 26,300 -2,508 Descending Minneapolis Center
Fri 11:38:46 PM 46.4486 -99.1558 288° West 415 478 23,800 -2,459 Descending Minneapolis Center
Fri 11:39:47 PM 46.4794 -99.3058 287° West 403 464 21,300 -2,311 Descending Minneapolis Center
Fri 11:40:48 PM 46.5089 -99.4486 287° West 389 448 19,100 -2,213 Descending Minneapolis Center
Fri 11:41:49 PM 46.5383 -99.5914 287° West 378 435 16,800 -2,164 Descending Minneapolis Center
Fri 11:42:50 PM 46.5672 -99.7292 287° West 367 422 14,700 -2,164 Descending Minneapolis Center
Fri 11:43:51 PM 46.5956 -99.8625 287° West 348 400 12,400 -1,836 Descending Minneapolis Center
Fri 11:45:04 PM 46.6203 -99.9861 286° West 331 381 10,600 -1,746 Descending Minneapolis Center
Fri 11:46:05 PM 46.6514 -100.1367 287° West 279 321 8,500 -1,623 Descending Minneapolis Center
Fri 11:47:06 PM 46.6719 -100.2425 286° West 269 310 7,300 -1,328 Descending Minneapolis Center
Fri 11:48:07 PM 46.6939 -100.3478 287° West 267 307 5,800 -1,525 Descending Minneapolis Center
Fri 11:49:08 PM 46.6975 -100.4600 273° West 274 315 4,200 -1,574 Descending Minneapolis Center

Login

Don't have an account? Register now (free) for customized features, flight alerts, and more!